createdAt,value
2024-05-09T00:00:58.397Z,75.43
2024-05-09T00:02:05.326Z,75.40
2024-05-09T00:03:12.659Z,75.97
2024-05-09T00:04:19.502Z,72.67
2024-05-09T00:05:26.518Z,73.07
2024-05-09T00:06:33.385Z,72.03
2024-05-09T00:07:40.217Z,71.87
2024-05-09T00:08:46.973Z,71.87
2024-05-09T00:09:53.777Z,72.87
2024-05-09T00:11:00.749Z,69.90
2024-05-09T00:12:08.420Z,72.60
2024-05-09T00:13:15.508Z,72.03
2024-05-09T00:14:22.458Z,71.47
2024-05-09T00:15:29.286Z,72.43
2024-05-09T00:16:36.101Z,73.80
2024-05-09T00:17:43.228Z,72.93
2024-05-09T00:18:50.238Z,71.03
2024-05-09T00:19:57.023Z,68.90
2024-05-09T00:21:04.084Z,65.57
2024-05-09T00:22:10.997Z,68.03
2024-05-09T00:23:17.891Z,66.97
2024-05-09T00:24:24.656Z,66.53
2024-05-09T00:25:31.431Z,68.17
2024-05-09T00:26:38.353Z,70.47
2024-05-09T00:27:45.232Z,69.03
2024-05-09T00:28:52.012Z,67.33
2024-05-09T00:29:58.732Z,68.33
2024-05-09T00:31:05.620Z,67.47
2024-05-09T00:32:12.528Z,68.90
2024-05-09T00:33:19.659Z,70.83
2024-05-09T00:34:26.805Z,67.37
2024-05-09T00:35:33.910Z,68.33
2024-05-09T00:36:40.817Z,68.13
2024-05-09T00:37:47.672Z,69.03
2024-05-09T00:38:54.389Z,65.70
2024-05-09T00:40:01.149Z,64.33
2024-05-09T00:41:07.988Z,61.77
2024-05-09T00:42:15.039Z,66.27
2024-05-09T00:43:21.823Z,65.90
2024-05-09T00:44:28.612Z,66.23
2024-05-09T00:45:35.318Z,67.80
2024-05-09T00:46:42.173Z,70.43
2024-05-09T00:47:49.614Z,70.50
2024-05-09T00:48:56.779Z,71.83
2024-05-09T00:50:05.522Z,74.43
2024-05-09T00:51:14.573Z,74.70
2024-05-09T00:52:21.536Z,75.00
2024-05-09T00:53:28.311Z,77.53
2024-05-09T00:54:35.076Z,75.10
2024-05-09T00:55:41.990Z,75.27
2024-05-09T00:56:48.899Z,73.67
2024-05-09T00:57:55.803Z,72.07
2024-05-09T00:59:02.594Z,70.07
2024-05-09T01:00:18.454Z,73.50
2024-05-09T01:01:21.117Z,74.30
2024-05-09T01:02:28.053Z,75.03
2024-05-09T01:03:35.090Z,73.63
2024-05-09T01:04:42.104Z,73.73
2024-05-09T01:05:48.995Z,73.97
2024-05-09T01:06:55.777Z,70.43
2024-05-09T01:08:02.812Z,71.13
2024-05-09T01:09:09.783Z,72.93
2024-05-09T01:10:21.291Z,70.67
2024-05-09T01:11:28.386Z,64.43
2024-05-09T01:12:35.458Z,68.67
2024-05-09T01:13:42.364Z,65.23
2024-05-09T01:14:49.219Z,65.40
2024-05-09T01:15:56.153Z,54.47
2024-05-09T01:17:03.080Z,57.87
2024-05-09T01:18:10.875Z,57.90
2024-05-09T01:19:18.669Z,60.70
2024-05-09T01:20:36.856Z,63.90
2024-05-09T01:21:37.346Z,66.90
2024-05-09T01:22:44.051Z,69.73
2024-05-09T01:23:50.932Z,67.33
2024-05-09T01:24:57.844Z,69.67
2024-05-09T01:26:04.788Z,69.27
2024-05-09T01:27:11.490Z,69.37
2024-05-09T01:28:18.298Z,69.63
2024-05-09T01:29:25.212Z,68.07
2024-05-09T01:30:35.501Z,66.37
2024-05-09T01:31:43.815Z,68.40
2024-05-09T01:32:50.843Z,69.07
2024-05-09T01:33:57.879Z,66.60
2024-05-09T01:35:04.857Z,69.77
2024-05-09T01:36:11.605Z,72.30
2024-05-09T01:37:18.430Z,73.27
2024-05-09T01:38:25.373Z,70.53
2024-05-09T01:39:32.210Z,66.30
2024-05-09T01:40:40.313Z,66.50
2024-05-09T01:41:47.323Z,67.40
2024-05-09T01:42:54.158Z,67.30
2024-05-09T01:44:01.084Z,68.13
2024-05-09T01:45:08.046Z,68.33
2024-05-09T01:46:14.802Z,68.63
2024-05-09T01:47:21.713Z,67.13
2024-05-09T01:48:28.718Z,64.93
2024-05-09T01:49:35.686Z,65.93
2024-05-09T01:50:43.374Z,70.93
2024-05-09T01:51:50.465Z,68.90
2024-05-09T01:52:57.333Z,68.13
2024-05-09T01:54:04.135Z,70.93
2024-05-09T01:55:10.966Z,68.13
2024-05-09T01:56:17.786Z,68.10
2024-05-09T01:57:24.481Z,71.37
2024-05-09T01:58:31.330Z,69.60
2024-05-09T01:59:38.184Z,68.73
2024-05-09T02:00:45.083Z,65.17
